createdAt,value
2022-11-12T00:00:53.862Z,7.48
2022-11-12T00:03:21.144Z,7.45
2022-11-12T00:05:49.355Z,7.44
2022-11-12T00:08:15.869Z,7.43
2022-11-12T00:10:42.232Z,7.40
2022-11-12T00:13:08.943Z,7.41
2022-11-12T00:15:35.293Z,7.43
2022-11-12T00:18:01.777Z,7.39
2022-11-12T00:20:28.212Z,7.37
2022-11-12T00:22:54.582Z,7.33
2022-11-12T00:25:21.041Z,7.31
2022-11-12T00:27:47.423Z,7.33
2022-11-12T00:30:13.828Z,7.33
2022-11-12T00:32:40.277Z,7.26
2022-11-12T00:35:12.443Z,7.28
2022-11-12T00:37:40.025Z,7.28
2022-11-12T00:40:07.220Z,7.28
2022-11-12T00:42:33.574Z,7.23
2022-11-12T00:44:59.990Z,7.25
2022-11-12T00:47:26.315Z,7.23
2022-11-12T00:49:52.690Z,7.19
2022-11-12T00:52:19.065Z,7.17
2022-11-12T00:54:45.420Z,7.14
2022-11-12T00:57:11.761Z,7.13
2022-11-12T00:59:38.149Z,7.13
2022-11-12T01:02:04.492Z,7.11
2022-11-12T01:04:30.882Z,7.10
2022-11-12T01:06:57.389Z,7.06
2022-11-12T01:09:23.991Z,7.06
2022-11-12T01:11:50.444Z,7.05
2022-11-12T01:14:16.821Z,7.01
2022-11-12T01:16:43.375Z,7.03
2022-11-12T01:19:11.797Z,7.03
2022-11-12T01:21:41.727Z,7.02
2022-11-12T01:24:09.317Z,7.02
2022-11-12T01:26:36.452Z,6.98
2022-11-12T01:29:04.537Z,6.98
2022-11-12T01:31:39.983Z,6.96
2022-11-12T01:34:08.447Z,6.94
2022-11-12T01:36:38.355Z,6.93
2022-11-12T01:39:06.649Z,6.92
2022-11-12T01:41:35.818Z,6.89
2022-11-12T01:44:13.015Z,6.86
2022-11-12T01:47:05.442Z,6.88
2022-11-12T01:49:40.826Z,6.88
2022-11-12T01:52:20.753Z,6.90
2022-11-12T01:54:51.012Z,6.88
2022-11-12T01:57:23.507Z,6.84
2022-11-12T01:59:51.588Z,6.79
2022-11-12T02:02:18.009Z,6.78
2022-11-12T02:04:45.440Z,6.78
2022-11-12T02:07:12.508Z,6.78
2022-11-12T02:09:39.495Z,6.76
2022-11-12T02:12:06.361Z,6.76
2022-11-12T02:14:33.057Z,6.74
2022-11-12T02:16:59.985Z,6.70
2022-11-12T02:19:26.556Z,6.65
2022-11-12T02:21:52.913Z,6.63
2022-11-12T02:24:19.230Z,6.61
2022-11-12T02:26:51.310Z,6.60
2022-11-12T02:29:17.781Z,6.60
2022-11-12T02:31:44.145Z,6.58
2022-11-12T02:34:10.627Z,6.58
2022-11-12T02:36:36.948Z,6.58
2022-11-12T02:39:03.929Z,6.59
2022-11-12T02:41:30.728Z,6.58
2022-11-12T02:43:57.208Z,6.59
2022-11-12T02:46:24.453Z,6.56
2022-11-12T02:48:50.937Z,6.57
2022-11-12T02:51:17.307Z,6.56
2022-11-12T02:53:43.961Z,6.56
2022-11-12T02:56:10.333Z,6.55
2022-11-12T02:58:36.887Z,6.53
2022-11-12T03:01:03.440Z,6.50
2022-11-12T03:03:29.821Z,6.48
2022-11-12T03:05:58.820Z,6.49
2022-11-12T03:08:26.384Z,6.48
2022-11-12T03:10:53.417Z,6.47
2022-11-12T03:13:20.480Z,6.45
2022-11-12T03:15:47.411Z,6.44
2022-11-12T03:18:13.938Z,6.40
2022-11-12T03:20:40.638Z,6.39
2022-11-12T03:23:09.370Z,6.41
2022-11-12T03:25:36.602Z,6.42
2022-11-12T03:28:06.077Z,6.43
2022-11-12T03:30:35.458Z,6.43
2022-11-12T03:33:02.033Z,6.44
2022-11-12T03:35:28.458Z,6.44
2022-11-12T03:37:54.809Z,6.45
2022-11-12T03:40:21.904Z,6.48
2022-11-12T03:42:49.682Z,6.47
2022-11-12T03:45:17.008Z,6.42
2022-11-12T03:47:45.119Z,6.37
2022-11-12T03:50:13.193Z,6.37
2022-11-12T03:52:43.702Z,6.35
2022-11-12T03:55:10.081Z,6.30
2022-11-12T03:57:36.452Z,6.27
2022-11-12T04:00:05.685Z,6.22
2022-11-12T04:02:32.156Z,6.24
2022-11-12T04:05:17.184Z,6.21
2022-11-12T04:08:01.861Z,6.18
2022-11-12T04:10:29.647Z,6.18
2022-11-12T04:13:14.600Z,6.18
2022-11-12T04:15:41.085Z,6.18
2022-11-12T04:18:26.476Z,6.17
2022-11-12T04:21:15.922Z,6.13
2022-11-12T04:23:42.237Z,6.12
2022-11-12T04:26:23.350Z,6.07
2022-11-12T04:29:08.274Z,6.06
2022-11-12T04:31:34.644Z,6.06
2022-11-12T04:34:21.099Z,6.04
2022-11-12T04:36:47.555Z,6.03
2022-11-12T04:39:13.876Z,6.01
2022-11-12T04:41:58.703Z,5.97
2022-11-12T04:44:43.425Z,5.98
2022-11-12T04:47:09.811Z,5.97
2022-11-12T04:49:36.146Z,5.98
2022-11-12T04:52:05.317Z,5.96
2022-11-12T04:54:32.230Z,5.91
2022-11-12T04:56:59.016Z,5.86
2022-11-12T04:59:25.477Z,5.86
2022-11-12T05:01:52.014Z,5.88
2022-11-12T05:04:18.401Z,5.88
2022-11-12T05:06:53.826Z,5.83
2022-11-12T05:09:23.280Z,5.81
2022-11-12T05:11:49.798Z,5.78
2022-11-12T05:14:16.281Z,5.78
2022-11-12T05:16:43.514Z,5.75
2022-11-12T05:19:10.082Z,5.77
2022-11-12T05:21:55.068Z,5.75
2022-11-12T05:24:40.566Z,5.74
2022-11-12T05:27:12.341Z,5.73
2022-11-12T05:29:38.866Z,5.69
2022-11-12T05:32:07.427Z,5.68
2022-11-12T05:34:34.513Z,5.68
2022-11-12T05:37:02.910Z,5.66
2022-11-12T05:39:29.313Z,5.66
2022-11-12T05:42:12.577Z,5.64
2022-11-12T05:44:39.832Z,5.64
2022-11-12T05:47:06.154Z,5.64
2022-11-12T05:49:32.482Z,5.64
2022-11-12T05:51:59.040Z,5.64
2022-11-12T05:54:25.413Z,5.64
2022-11-12T05:56:53.480Z,5.63
2022-11-12T05:59:19.849Z,5.62
2022-11-12T06:01:46.308Z,5.60
2022-11-12T06:04:14.610Z,5.59
2022-11-12T06:06:41.600Z,5.54
2022-11-12T06:09:08.960Z,5.51
2022-11-12T06:11:35.779Z,5.49
2022-11-12T06:14:03.073Z,5.47
2022-11-12T06:16:30.339Z,5.48
2022-11-12T06:18:56.850Z,5.49
2022-11-12T06:21:23.398Z,5.49
2022-11-12T06:23:57.827Z,5.49
2022-11-12T06:26:29.014Z,5.49
2022-11-12T06:28:55.802Z,5.49
2022-11-12T06:31:22.438Z,5.49
2022-11-12T06:33:50.540Z,5.49
2022-11-12T06:36:19.507Z,5.48
2022-11-12T06:38:46.403Z,5.46
2022-11-12T06:41:13.904Z,5.45
2022-11-12T06:43:41.622Z,5.47
2022-11-12T06:46:13.333Z,5.48
2022-11-12T06:48:39.918Z,5.47
2022-11-12T06:51:08.892Z,5.47
2022-11-12T06:53:35.330Z,5.47
2022-11-12T06:56:03.539Z,5.45
2022-11-12T06:58:30.341Z,5.44
2022-11-12T07:00:56.864Z,5.44
2022-11-12T07:03:23.306Z,5.45
2022-11-12T07:05:49.653Z,5.45
2022-11-12T07:08:16.044Z,5.44
2022-11-12T07:10:45.382Z,5.43
2022-11-12T07:13:12.479Z,5.43
2022-11-12T07:15:39.089Z,5.43
2022-11-12T07:18:05.690Z,5.42
2022-11-12T07:20:32.017Z,5.43
2022-11-12T07:23:03.353Z,5.42
2022-11-12T07:25:29.702Z,5.41
2022-11-12T07:27:56.146Z,5.42
2022-11-12T07:30:22.560Z,5.43
2022-11-12T07:32:51.931Z,5.44
2022-11-12T07:35:18.749Z,5.44
2022-11-12T07:37:45.179Z,5.46
2022-11-12T07:40:11.870Z,5.47
2022-11-12T07:42:38.257Z,5.46
2022-11-12T07:45:05.420Z,5.46
2022-11-12T07:47:31.800Z,5.47
2022-11-12T07:49:58.145Z,5.49
2022-11-12T07:52:24.469Z,5.47
2022-11-12T07:54:51.235Z,5.49
2022-11-12T07:57:17.654Z,5.48
2022-11-12T07:59:46.271Z,5.51
2022-11-12T08:02:13.086Z,5.54
2022-11-12T08:04:39.695Z,5.55
2022-11-12T08:07:06.324Z,5.57
2022-11-12T08:09:33.040Z,5.59
2022-11-12T08:11:59.416Z,5.61
2022-11-12T08:14:25.847Z,5.62
2022-11-12T08:16:52.263Z,5.65
2022-11-12T08:19:18.794Z,5.64
2022-11-12T08:21:45.240Z,5.66
2022-11-12T08:24:11.802Z,5.71
2022-11-12T08:26:38.281Z,5.73
2022-11-12T08:29:08.534Z,5.78
2022-11-12T08:31:36.028Z,5.83
2022-11-12T08:34:12.056Z,5.86
2022-11-12T08:36:40.014Z,5.93
2022-11-12T08:39:07.657Z,5.99
2022-11-12T08:41:34.140Z,6.02
2022-11-12T08:44:07.152Z,6.08
2022-11-12T08:46:34.832Z,6.13
2022-11-12T08:49:01.229Z,6.18
2022-11-12T08:51:27.548Z,6.24
2022-11-12T08:53:53.960Z,6.28
2022-11-12T08:56:20.566Z,6.35
2022-11-12T08:58:47.001Z,6.42
2022-11-12T09:01:13.421Z,6.50
2022-11-12T09:03:39.885Z,6.57
2022-11-12T09:06:06.625Z,6.65
2022-11-12T09:08:35.260Z,6.74
2022-11-12T09:11:01.654Z,6.84
2022-11-12T09:13:28.219Z,6.93
2022-11-12T09:15:59.820Z,7.08
2022-11-12T09:18:26.588Z,7.25
2022-11-12T09:20:53.366Z,7.46
2022-11-12T09:23:19.703Z,7.60
2022-11-12T09:25:46.019Z,7.75
2022-11-12T09:28:14.994Z,7.90
2022-11-12T09:30:47.325Z,8.07
2022-11-12T09:33:18.684Z,8.20
2022-11-12T09:35:46.109Z,8.31
2022-11-12T09:38:14.774Z,8.47
2022-11-12T09:40:51.853Z,8.62
2022-11-12T09:43:25.193Z,8.72
2022-11-12T09:46:13.654Z,8.77
2022-11-12T09:48:45.913Z,8.86
2022-11-12T09:51:20.980Z,8.98
2022-11-12T09:53:58.423Z,9.09
2022-11-12T09:56:26.430Z,9.16
2022-11-12T09:58:54.093Z,9.27
2022-11-12T10:01:43.423Z,9.34
2022-11-12T10:04:21.994Z,9.43
2022-11-12T10:07:01.282Z,9.56
2022-11-12T10:10:04.169Z,9.68
2022-11-12T10:12:48.778Z,9.80
2022-11-12T10:15:57.441Z,9.93
2022-11-12T10:19:04.168Z,10.08
2022-11-12T10:21:44.590Z,10.23
2022-11-12T10:24:12.109Z,10.33
2022-11-12T10:26:40.051Z,10.36
2022-11-12T10:29:24.967Z,10.46
2022-11-12T10:31:51.294Z,10.56
2022-11-12T10:34:20.781Z,10.63
2022-11-12T10:36:56.676Z,10.70
2022-11-12T10:39:46.741Z,10.72
2022-11-12T10:42:15.842Z,10.70
2022-11-12T10:44:43.386Z,10.75
2022-11-12T10:47:24.270Z,10.87
2022-11-12T10:50:20.392Z,11.01
2022-11-12T10:53:00.192Z,11.11
2022-11-12T10:55:29.832Z,11.17
2022-11-12T10:58:06.682Z,11.34
2022-11-12T11:00:33.601Z,11.48
2022-11-12T11:03:03.189Z,11.55
2022-11-12T11:05:31.199Z,11.57
2022-11-12T11:07:57.853Z,11.56
2022-11-12T11:10:32.987Z,11.59
2022-11-12T11:13:28.883Z,11.71
2022-11-12T11:16:06.780Z,11.79
2022-11-12T11:18:35.998Z,11.84
2022-11-12T11:21:46.042Z,11.86
2022-11-12T11:24:25.545Z,11.89
2022-11-12T11:27:02.131Z,11.99
2022-11-12T11:29:47.256Z,12.07
2022-11-12T11:32:22.673Z,12.09
2022-11-12T11:35:20.580Z,12.12
2022-11-12T11:38:05.928Z,12.20
2022-11-12T11:40:38.065Z,12.22
2022-11-12T11:43:27.580Z,12.30
2022-11-12T11:46:02.021Z,12.36
2022-11-12T11:48:47.042Z,12.42
2022-11-12T11:51:25.909Z,12.47
2022-11-12T11:54:14.736Z,12.54
2022-11-12T11:56:43.629Z,12.63
2022-11-12T11:59:16.117Z,12.69
2022-11-12T12:01:48.536Z,13.05
2022-11-12T12:04:47.418Z,13.65
2022-11-12T12:07:38.772Z,13.82
2022-11-12T12:11:06.936Z,13.52
2022-11-12T12:13:48.960Z,13.11
2022-11-12T12:16:34.381Z,12.93
2022-11-12T12:19:19.675Z,12.80
2022-11-12T12:21:50.057Z,12.76
2022-11-12T12:24:19.386Z,12.74
2022-11-12T12:27:12.184Z,12.75
2022-11-12T12:29:56.966Z,12.79
2022-11-12T12:32:31.371Z,12.76
2022-11-12T12:35:16.238Z,12.73
2022-11-12T12:38:05.365Z,12.69
2022-11-12T12:40:41.438Z,12.67
2022-11-12T12:43:20.168Z,12.67
2022-11-12T12:45:47.480Z,12.65
2022-11-12T12:48:20.398Z,12.71
2022-11-12T12:50:48.780Z,12.75
2022-11-12T12:53:35.504Z,12.76
2022-11-12T12:56:07.143Z,12.77
2022-11-12T12:58:45.140Z,12.79
2022-11-12T13:01:23.580Z,12.82
2022-11-12T13:04:00.046Z,12.83
2022-11-12T13:06:37.225Z,12.83
2022-11-12T13:09:06.558Z,12.82
2022-11-12T13:12:00.803Z,12.83
2022-11-12T13:14:36.375Z,12.84
2022-11-12T13:17:09.007Z,12.89
2022-11-12T13:19:54.544Z,12.85
2022-11-12T13:22:21.318Z,12.86
2022-11-12T13:25:04.519Z,12.89
2022-11-12T13:27:46.647Z,12.87
2022-11-12T13:30:12.907Z,12.83
2022-11-12T13:32:48.628Z,12.87
2022-11-12T13:35:34.736Z,12.84
2022-11-12T13:38:13.259Z,12.83
2022-11-12T13:40:44.583Z,12.78
2022-11-12T13:43:15.874Z,12.79
2022-11-12T13:45:50.129Z,12.79
2022-11-12T13:48:36.223Z,12.82
2022-11-12T13:51:11.588Z,12.87
2022-11-12T13:53:37.940Z,12.88
2022-11-12T13:56:04.335Z,12.90
2022-11-12T13:58:36.031Z,12.94
2022-11-12T14:01:04.656Z,12.98
2022-11-12T14:03:53.823Z,13.00
2022-11-12T14:06:38.845Z,12.98
2022-11-12T14:09:16.448Z,12.94
2022-11-12T14:12:10.334Z,12.96
2022-11-12T14:15:21.457Z,12.94
2022-11-12T14:18:15.702Z,12.89
2022-11-12T14:20:42.338Z,12.89
2022-11-12T14:23:26.559Z,12.90
2022-11-12T14:25:56.962Z,12.91
2022-11-12T14:28:36.942Z,12.90
2022-11-12T14:31:04.848Z,12.87
2022-11-12T14:33:32.575Z,12.87
2022-11-12T14:36:05.263Z,12.87
2022-11-12T14:38:41.147Z,12.85
2022-11-12T14:41:18.594Z,12.84
2022-11-12T14:43:50.129Z,12.82
2022-11-12T14:46:23.338Z,12.81
2022-11-12T14:48:55.310Z,12.80
2022-11-12T14:51:25.217Z,12.75
2022-11-12T14:53:57.008Z,12.73
2022-11-12T14:56:35.520Z,12.74
2022-11-12T14:59:02.544Z,12.68
2022-11-12T15:04:21.799Z,12.58
2022-11-12T15:06:56.422Z,12.57
2022-11-12T15:09:34.875Z,12.54
2022-11-12T15:12:03.321Z,12.49
2022-11-12T15:14:30.134Z,12.45
2022-11-12T15:16:56.827Z,12.42
2022-11-12T15:19:29.687Z,12.44
2022-11-12T15:22:01.044Z,12.42
2022-11-12T15:24:36.869Z,12.40
2022-11-12T15:27:42.060Z,12.37
2022-11-12T15:30:30.721Z,12.34
2022-11-12T15:33:19.088Z,12.31
2022-11-12T15:35:45.821Z,12.29
2022-11-12T15:38:15.359Z,12.27
2022-11-12T15:40:45.636Z,12.23
2022-11-12T15:43:15.705Z,12.18
2022-11-12T15:45:42.304Z,12.17
2022-11-12T15:48:11.590Z,12.12
2022-11-12T15:50:39.008Z,12.02
2022-11-12T15:53:05.953Z,11.98
2022-11-12T15:55:33.829Z,11.96
2022-11-12T15:58:00.173Z,11.95
2022-11-12T16:00:32.601Z,11.93
2022-11-12T16:03:05.704Z,11.90
2022-11-12T16:05:32.106Z,11.83
2022-11-12T16:07:58.431Z,11.77
2022-11-12T16:10:25.667Z,11.71
2022-11-12T16:12:55.027Z,11.69
2022-11-12T16:15:25.385Z,11.65
2022-11-12T16:17:53.267Z,11.70
2022-11-12T16:20:25.577Z,11.73
2022-11-12T16:22:52.438Z,11.73
2022-11-12T16:25:20.420Z,11.70
2022-11-12T16:27:51.407Z,11.64
2022-11-12T16:30:24.192Z,11.55
2022-11-12T16:32:51.150Z,11.49
2022-11-12T16:35:18.197Z,11.42
2022-11-12T16:37:46.359Z,11.36
2022-11-12T16:40:21.108Z,11.34
2022-11-12T16:42:47.475Z,11.34
2022-11-12T16:45:15.772Z,11.38
2022-11-12T16:47:49.826Z,11.38
2022-11-12T16:50:19.233Z,11.33
2022-11-12T16:52:45.670Z,11.29
2022-11-12T16:55:12.064Z,11.23
2022-11-12T16:57:38.619Z,11.21
2022-11-12T17:00:06.780Z,11.17
2022-11-12T17:02:33.603Z,11.12
2022-11-12T17:05:04.534Z,11.11
2022-11-12T17:07:30.971Z,11.08
2022-11-12T17:09:57.506Z,11.06
2022-11-12T17:12:23.944Z,11.04
2022-11-12T17:14:50.297Z,10.99
2022-11-12T17:17:16.684Z,10.96
2022-11-12T17:19:43.030Z,10.93
2022-11-12T17:22:09.383Z,10.91
2022-11-12T17:24:35.715Z,10.90
2022-11-12T17:27:02.214Z,10.88
2022-11-12T17:29:28.590Z,10.89
2022-11-12T17:31:55.016Z,10.86
2022-11-12T17:34:21.358Z,10.85
2022-11-12T17:36:47.716Z,10.83
2022-11-12T17:39:14.308Z,10.82
2022-11-12T17:41:40.892Z,10.79
2022-11-12T17:44:07.453Z,10.77
2022-11-12T17:46:35.836Z,10.75
2022-11-12T17:49:02.322Z,10.70
2022-11-12T17:51:29.620Z,10.69
2022-11-12T17:53:55.960Z,10.66
2022-11-12T17:56:23.787Z,10.64
2022-11-12T17:58:50.634Z,10.60
2022-11-12T18:01:25.554Z,10.62
2022-11-12T18:03:53.676Z,10.61
2022-11-12T18:06:28.881Z,10.60
2022-11-12T18:09:00.606Z,10.59
2022-11-12T18:11:28.942Z,10.56
2022-11-12T18:13:56.588Z,10.54
2022-11-12T18:16:26.451Z,10.53
2022-11-12T18:18:57.149Z,10.52
2022-11-12T18:21:25.155Z,10.49
2022-11-12T18:23:52.115Z,10.47
2022-11-12T18:26:19.655Z,10.41
2022-11-12T18:28:54.962Z,10.36
2022-11-12T18:31:22.958Z,10.29
2022-11-12T18:33:50.380Z,10.27
2022-11-12T18:36:20.729Z,10.30
2022-11-12T18:38:49.974Z,10.23
2022-11-12T18:41:18.139Z,10.22
2022-11-12T18:43:44.454Z,10.19
2022-11-12T18:46:11.622Z,10.13
2022-11-12T18:48:40.214Z,10.11
2022-11-12T18:51:11.709Z,10.08
2022-11-12T18:53:39.834Z,10.00
2022-11-12T18:56:10.289Z,9.99
2022-11-12T18:58:36.941Z,9.98
2022-11-12T19:01:23.223Z,10.00
2022-11-12T19:03:54.539Z,9.98
2022-11-12T19:06:21.711Z,9.91
2022-11-12T19:08:48.342Z,9.87
2022-11-12T19:11:16.647Z,9.85
2022-11-12T19:13:43.112Z,9.80
2022-11-12T19:16:12.919Z,9.80
2022-11-12T19:18:41.156Z,9.78
2022-11-12T19:21:12.927Z,9.79
2022-11-12T19:23:39.509Z,9.75
2022-11-12T19:26:08.420Z,9.71
2022-11-12T19:28:35.653Z,9.69
2022-11-12T19:31:04.966Z,9.58
2022-11-12T19:33:32.572Z,9.57
2022-11-12T19:36:05.159Z,9.54
2022-11-12T19:38:32.858Z,9.52
2022-11-12T19:41:06.608Z,9.55
2022-11-12T19:43:33.046Z,9.52
2022-11-12T19:45:59.440Z,9.48
2022-11-12T19:48:26.438Z,9.47
2022-11-12T19:50:53.472Z,9.44
2022-11-12T19:53:19.923Z,9.43
2022-11-12T19:55:46.337Z,9.43
2022-11-12T19:58:12.646Z,9.40
2022-11-12T20:00:38.995Z,9.41
2022-11-12T20:03:05.535Z,9.39
2022-11-12T20:05:31.932Z,9.33
2022-11-12T20:07:58.317Z,9.28
2022-11-12T20:10:24.719Z,9.27
2022-11-12T20:12:51.100Z,9.28
2022-11-12T20:15:17.594Z,9.27
2022-11-12T20:17:43.942Z,9.25
2022-11-12T20:20:10.703Z,9.24
2022-11-12T20:22:37.042Z,9.23
2022-11-12T20:25:03.738Z,9.18
2022-11-12T20:27:30.195Z,9.16
2022-11-12T20:29:56.641Z,9.16
2022-11-12T20:32:23.211Z,9.13
2022-11-12T20:34:49.584Z,9.09
2022-11-12T20:37:15.970Z,9.08
2022-11-12T20:39:42.289Z,9.08
2022-11-12T20:42:08.629Z,9.05
2022-11-12T20:44:35.056Z,9.04
2022-11-12T20:47:01.597Z,8.96
2022-11-12T20:49:28.558Z,8.95
2022-11-12T20:51:55.184Z,8.94
2022-11-12T20:54:21.738Z,8.94
2022-11-12T20:56:50.549Z,8.89
2022-11-12T20:59:16.966Z,8.86
2022-11-12T21:01:43.396Z,8.86
2022-11-12T21:04:12.298Z,8.86
2022-11-12T21:06:38.689Z,8.82
2022-11-12T21:09:05.108Z,8.79
2022-11-12T21:11:31.826Z,8.75
2022-11-12T21:14:00.203Z,8.73
2022-11-12T21:16:26.612Z,8.69
2022-11-12T21:18:52.938Z,8.68
2022-11-12T21:21:21.069Z,8.64
2022-11-12T21:23:50.139Z,8.59
2022-11-12T21:26:21.292Z,8.55
2022-11-12T21:28:50.030Z,8.51
2022-11-12T21:31:19.922Z,8.47
2022-11-12T21:33:53.284Z,8.49
2022-11-12T21:36:20.711Z,8.49
2022-11-12T21:38:47.861Z,8.50
2022-11-12T21:41:20.075Z,8.49
2022-11-12T21:43:47.376Z,8.49
2022-11-12T21:46:17.255Z,8.47
2022-11-12T21:48:44.357Z,8.45
2022-11-12T21:51:13.937Z,8.46
2022-11-12T21:53:41.199Z,8.43
2022-11-12T21:56:10.611Z,8.40
2022-11-12T21:58:37.391Z,8.40
2022-11-12T22:01:21.658Z,8.42
2022-11-12T22:03:50.122Z,8.40
2022-11-12T22:06:17.425Z,8.37
2022-11-12T22:08:44.062Z,8.33
2022-11-12T22:11:13.085Z,8.29
2022-11-12T22:13:40.126Z,8.26
2022-11-12T22:16:09.019Z,8.26
2022-11-12T22:18:35.720Z,8.25
2022-11-12T22:21:04.889Z,8.25
2022-11-12T22:23:40.948Z,8.24
2022-11-12T22:26:11.147Z,8.24
2022-11-12T22:28:37.798Z,8.21
2022-11-12T22:31:05.196Z,8.22
2022-11-12T22:33:31.638Z,8.17
2022-11-12T22:36:02.029Z,8.17
2022-11-12T22:38:33.667Z,8.14
2022-11-12T22:41:04.522Z,8.13
2022-11-12T22:43:32.538Z,8.12
2022-11-12T22:46:29.301Z,8.10
2022-11-12T22:48:56.229Z,8.05
2022-11-12T22:51:25.037Z,8.00
2022-11-12T22:53:59.661Z,7.97
2022-11-12T22:56:27.328Z,7.94
2022-11-12T22:58:54.766Z,7.94
2022-11-12T23:01:23.662Z,7.94
2022-11-12T23:03:51.419Z,7.95
2022-11-12T23:06:19.059Z,7.93
2022-11-12T23:08:45.920Z,7.90
2022-11-12T23:11:15.314Z,7.90
2022-11-12T23:13:42.237Z,7.87
2022-11-12T23:16:11.819Z,7.85
2022-11-12T23:18:38.193Z,7.86
2022-11-12T23:21:12.976Z,7.84
2022-11-12T23:23:39.448Z,7.81
2022-11-12T23:26:10.362Z,7.81
2022-11-12T23:28:37.331Z,7.78
2022-11-12T23:31:05.498Z,7.76
2022-11-12T23:33:31.880Z,7.72
2022-11-12T23:36:09.776Z,7.74
2022-11-12T23:38:36.234Z,7.72
2022-11-12T23:41:03.584Z,7.72
2022-11-12T23:43:30.191Z,7.70
2022-11-12T23:45:56.733Z,7.70
2022-11-12T23:48:23.187Z,7.68
2022-11-12T23:50:50.630Z,7.65
2022-11-12T23:53:17.989Z,7.61
2022-11-12T23:55:44.933Z,7.55
2022-11-12T23:58:11.339Z,7.51
